sensor_id;sensor_type;location;lat;lon;timestamp;temperature;humidity
3896;DHT22;1963;48.804;8.358;2023-01-08T10:29:38;10.00;99.90
3896;DHT22;1963;48.804;8.358;2023-01-08T10:32:14;9.90;99.90
3896;DHT22;1963;48.804;8.358;2023-01-08T10:34:44;10.00;99.90
3896;DHT22;1963;48.804;8.358;2023-01-08T10:37:15;10.10;99.90
3896;DHT22;1963;48.804;8.358;2023-01-08T10:39:45;10.00;99.90
3896;DHT22;1963;48.804;8.358;2023-01-08T10:42:15;10.10;99.90
3896;DHT22;1963;48.804;8.358;2023-01-08T10:44:56;10.00;99.90
3896;DHT22;1963;48.804;8.358;2023-01-08T10:47:27;10.00;99.90
3896;DHT22;1963;48.804;8.358;2023-01-08T10:49:57;10.00;99.90
3896;DHT22;1963;48.804;8.358;2023-01-08T10:52:30;10.10;99.90
3896;DHT22;1963;48.804;8.358;2023-01-08T10:55:11;10.10;99.90
3896;DHT22;1963;48.804;8.358;2023-01-08T10:57:39;10.10;99.90
3896;DHT22;1963;48.804;8.358;2023-01-08T11:03:33;10.20;99.90
3896;DHT22;1963;48.804;8.358;2023-01-08T11:06:09;10.10;99.90
3896;DHT22;1963;48.804;8.358;2023-01-08T11:08:38;10.20;99.90
3896;DHT22;1963;48.804;8.358;2023-01-08T11:11:08;10.20;99.90
3896;DHT22;1963;48.804;8.358;2023-01-08T11:13:37;10.30;99.90
3896;DHT22;1963;48.804;8.358;2023-01-08T11:16:07;10.40;99.90
3896;DHT22;1963;48.804;8.358;2023-01-08T11:19:03;10.50;99.90
3896;DHT22;1963;48.804;8.358;2023-01-08T11:22:01;10.70;99.90
3896;DHT22;1963;48.804;8.358;2023-01-08T11:24:31;10.90;99.90
3896;DHT22;1963;48.804;8.358;2023-01-08T11:27:04;11.00;99.90
3896;DHT22;1963;48.804;8.358;2023-01-08T11:29:42;11.10;99.90
3896;DHT22;1963;48.804;8.358;2023-01-08T11:32:24;11.30;99.90
3896;DHT22;1963;48.804;8.358;2023-01-08T11:35:00;11.30;99.90
3896;DHT22;1963;48.804;8.358;2023-01-08T11:37:36;11.40;99.90
3896;DHT22;1963;48.804;8.358;2023-01-08T11:40:12;11.50;99.90
3896;DHT22;1963;48.804;8.358;2023-01-08T11:43:02;11.60;99.90
3896;DHT22;1963;48.804;8.358;2023-01-08T11:45:38;11.60;99.90
3896;DHT22;1963;48.804;8.358;2023-01-08T11:48:23;11.70;99.90
3896;DHT22;1963;48.804;8.358;2023-01-08T11:51:04;11.70;99.90
3896;DHT22;1963;48.804;8.358;2023-01-08T11:53:39;11.70;99.90
3896;DHT22;1963;48.804;8.358;2023-01-08T11:56:19;11.60;99.90
3896;DHT22;1963;48.804;8.358;2023-01-08T11:58:58;11.60;99.90
3896;DHT22;1963;48.804;8.358;2023-01-08T12:01:38;11.70;99.90
3896;DHT22;1963;48.804;8.358;2023-01-08T12:07:16;11.80;99.90
3896;DHT22;1963;48.804;8.358;2023-01-08T12:09:48;11.80;99.90
3896;DHT22;1963;48.804;8.358;2023-01-08T12:12:24;11.90;99.90
3896;DHT22;1963;48.804;8.358;2023-01-08T12:15:02;11.80;99.90
3896;DHT22;1963;48.804;8.358;2023-01-08T12:20:29;11.80;99.90
3896;DHT22;1963;48.804;8.358;2023-01-08T12:23:24;11.90;99.90
3896;DHT22;1963;48.804;8.358;2023-01-08T12:26:17;12.00;99.90
3896;DHT22;1963;48.804;8.358;2023-01-08T12:32:14;12.00;99.90
3896;DHT22;1963;48.804;8.358;2023-01-08T12:34:53;12.00;99.90
3896;DHT22;1963;48.804;8.358;2023-01-08T12:37:26;11.80;99.90
3896;DHT22;1963;48.804;8.358;2023-01-08T12:40:01;11.80;99.90
3896;DHT22;1963;48.804;8.358;2023-01-08T12:42:37;11.90;99.90
3896;DHT22;1963;48.804;8.358;2023-01-08T12:45:16;11.80;99.90
3896;DHT22;1963;48.804;8.358;2023-01-08T12:47:48;11.70;99.90
3896;DHT22;1963;48.804;8.358;2023-01-08T12:50:33;11.60;99.90
3896;DHT22;1963;48.804;8.358;2023-01-08T12:53:08;11.50;99.90
3896;DHT22;1963;48.804;8.358;2023-01-08T12:55:47;11.50;99.90
3896;DHT22;1963;48.804;8.358;2023-01-08T12:58:24;11.50;99.90
3896;DHT22;1963;48.804;8.358;2023-01-08T13:01:02;11.60;99.90
3896;DHT22;1963;48.804;8.358;2023-01-08T13:03:33;11.60;99.90
3896;DHT22;1963;48.804;8.358;2023-01-08T13:06:07;11.60;99.90
3896;DHT22;1963;48.804;8.358;2023-01-08T13:08:58;11.70;99.90
3896;DHT22;1963;48.804;8.358;2023-01-08T14:22:44;11.70;99.90
3896;DHT22;1963;48.804;8.358;2023-01-08T14:25:17;11.70;99.90
3896;DHT22;1963;48.804;8.358;2023-01-08T14:27:57;11.70;99.90
3896;DHT22;1963;48.804;8.358;2023-01-08T14:30:26;11.70;99.90
3896;DHT22;1963;48.804;8.358;2023-01-08T14:32:56;11.70;99.90
3896;DHT22;1963;48.804;8.358;2023-01-08T14:35:30;11.80;99.90
3896;DHT22;1963;48.804;8.358;2023-01-08T14:38:01;11.70;99.90
3896;DHT22;1963;48.804;8.358;2023-01-08T14:40:34;11.80;99.90
3896;DHT22;1963;48.804;8.358;2023-01-08T14:43:07;11.70;99.90
3896;DHT22;1963;48.804;8.358;2023-01-08T14:45:37;11.70;99.90
3896;DHT22;1963;48.804;8.358;2023-01-08T14:48:13;11.60;99.90
3896;DHT22;1963;48.804;8.358;2023-01-08T14:50:52;11.60;99.90
3896;DHT22;1963;48.804;8.358;2023-01-08T14:53:29;11.60;99.90
3896;DHT22;1963;48.804;8.358;2023-01-08T14:55:59;11.60;99.90
3896;DHT22;1963;48.804;8.358;2023-01-08T14:58:32;11.70;99.90
3896;DHT22;1963;48.804;8.358;2023-01-08T15:01:05;11.60;99.90
3896;DHT22;1963;48.804;8.358;2023-01-08T15:03:37;11.60;99.90
3896;DHT22;1963;48.804;8.358;2023-01-08T15:06:06;11.50;99.90
3896;DHT22;1963;48.804;8.358;2023-01-08T15:08:39;11.40;99.90
3896;DHT22;1963;48.804;8.358;2023-01-08T15:11:20;11.40;99.90
3896;DHT22;1963;48.804;8.358;2023-01-08T15:13:49;11.40;99.90
3896;DHT22;1963;48.804;8.358;2023-01-08T15:16:22;11.40;99.90
3896;DHT22;1963;48.804;8.358;2023-01-08T15:18:59;11.30;99.90
3896;DHT22;1963;48.804;8.358;2023-01-08T15:21:27;11.30;99.90
3896;DHT22;1963;48.804;8.358;2023-01-08T15:23:59;11.30;99.90
3896;DHT22;1963;48.804;8.358;2023-01-08T15:26:27;11.30;99.90
3896;DHT22;1963;48.804;8.358;2023-01-08T15:28:57;11.20;99.90
3896;DHT22;1963;48.804;8.358;2023-01-08T15:31:28;11.20;99.90
3896;DHT22;1963;48.804;8.358;2023-01-08T15:33:58;11.10;99.90
3896;DHT22;1963;48.804;8.358;2023-01-08T15:36:26;11.10;99.90
3896;DHT22;1963;48.804;8.358;2023-01-08T15:38:57;11.10;99.90
3896;DHT22;1963;48.804;8.358;2023-01-08T15:41:33;11.00;99.90
3896;DHT22;1963;48.804;8.358;2023-01-08T15:44:19;11.00;99.90
3896;DHT22;1963;48.804;8.358;2023-01-08T15:46:47;11.00;99.90
3896;DHT22;1963;48.804;8.358;2023-01-08T15:49:15;10.90;99.90
3896;DHT22;1963;48.804;8.358;2023-01-08T15:51:46;10.90;99.90
3896;DHT22;1963;48.804;8.358;2023-01-08T15:54:16;10.80;99.90
3896;DHT22;1963;48.804;8.358;2023-01-08T15:56:45;10.70;99.90
3896;DHT22;1963;48.804;8.358;2023-01-08T15:59:13;10.70;99.90
3896;DHT22;1963;48.804;8.358;2023-01-08T16:01:41;10.70;99.90
3896;DHT22;1963;48.804;8.358;2023-01-08T16:04:09;10.60;99.90
3896;DHT22;1963;48.804;8.358;2023-01-08T16:06:37;10.60;99.90
3896;DHT22;1963;48.804;8.358;2023-01-08T16:09:07;10.60;99.90
3896;DHT22;1963;48.804;8.358;2023-01-08T16:11:36;10.60;99.90
3896;DHT22;1963;48.804;8.358;2023-01-08T16:14:04;10.60;99.90
3896;DHT22;1963;48.804;8.358;2023-01-08T16:16:32;10.50;99.90
3896;DHT22;1963;48.804;8.358;2023-01-08T16:19:00;10.50;99.90
3896;DHT22;1963;48.804;8.358;2023-01-08T16:21:28;10.50;99.90
3896;DHT22;1963;48.804;8.358;2023-01-08T16:23:56;10.40;99.90
3896;DHT22;1963;48.804;8.358;2023-01-08T16:26:24;10.30;99.90
3896;DHT22;1963;48.804;8.358;2023-01-08T16:28:53;10.30;99.90
3896;DHT22;1963;48.804;8.358;2023-01-08T16:31:21;10.20;99.90
3896;DHT22;1963;48.804;8.358;2023-01-08T16:33:49;10.20;99.90
3896;DHT22;1963;48.804;8.358;2023-01-08T16:36:17;10.10;99.90
3896;DHT22;1963;48.804;8.358;2023-01-08T16:38:46;10.10;99.90
3896;DHT22;1963;48.804;8.358;2023-01-08T16:41:14;10.10;99.90
3896;DHT22;1963;48.804;8.358;2023-01-08T16:43:42;10.20;99.90
3896;DHT22;1963;48.804;8.358;2023-01-08T16:46:15;10.00;99.90
3896;DHT22;1963;48.804;8.358;2023-01-08T16:48:44;10.10;99.90
3896;DHT22;1963;48.804;8.358;2023-01-08T16:51:15;10.00;99.90
3896;DHT22;1963;48.804;8.358;2023-01-08T16:53:43;10.00;99.90
3896;DHT22;1963;48.804;8.358;2023-01-08T16:56:11;10.00;99.90
3896;DHT22;1963;48.804;8.358;2023-01-08T16:58:39;9.90;99.90
3896;DHT22;1963;48.804;8.358;2023-01-08T17:01:08;9.90;99.90
3896;DHT22;1963;48.804;8.358;2023-01-08T17:03:38;9.90;99.90
3896;DHT22;1963;48.804;8.358;2023-01-08T17:06:07;9.80;99.90
3896;DHT22;1963;48.804;8.358;2023-01-08T17:08:36;9.80;99.90
3896;DHT22;1963;48.804;8.358;2023-01-08T17:11:07;9.80;99.90
3896;DHT22;1963;48.804;8.358;2023-01-08T17:13:35;9.70;99.90
3896;DHT22;1963;48.804;8.358;2023-01-08T17:16:03;9.70;99.90
3896;DHT22;1963;48.804;8.358;2023-01-08T17:18:32;9.60;99.90
3896;DHT22;1963;48.804;8.358;2023-01-08T17:21:01;9.60;99.90
3896;DHT22;1963;48.804;8.358;2023-01-08T17:23:29;9.60;99.90
3896;DHT22;1963;48.804;8.358;2023-01-08T17:25:59;9.60;99.90
3896;DHT22;1963;48.804;8.358;2023-01-08T17:28:29;9.50;99.90
3896;DHT22;1963;48.804;8.358;2023-01-08T17:31:01;9.40;99.90
3896;DHT22;1963;48.804;8.358;2023-01-08T17:33:29;9.40;99.90
3896;DHT22;1963;48.804;8.358;2023-01-08T17:35:57;9.30;99.90
3896;DHT22;1963;48.804;8.358;2023-01-08T17:38:26;9.20;99.90
3896;DHT22;1963;48.804;8.358;2023-01-08T17:40:59;9.20;99.90
3896;DHT22;1963;48.804;8.358;2023-01-08T17:43:27;9.20;99.90
3896;DHT22;1963;48.804;8.358;2023-01-08T17:46:01;9.10;99.90
3896;DHT22;1963;48.804;8.358;2023-01-08T17:48:30;9.20;99.90
3896;DHT22;1963;48.804;8.358;2023-01-08T17:50:58;9.20;99.90
3896;DHT22;1963;48.804;8.358;2023-01-08T17:53:27;9.20;99.90
3896;DHT22;1963;48.804;8.358;2023-01-08T17:55:57;9.10;99.90
3896;DHT22;1963;48.804;8.358;2023-01-08T17:58:27;9.10;99.90
3896;DHT22;1963;48.804;8.358;2023-01-08T18:10:23;9.00;99.90
3896;DHT22;1963;48.804;8.358;2023-01-08T18:12:51;8.90;99.90
3896;DHT22;1963;48.804;8.358;2023-01-08T18:15:19;8.90;99.90
3896;DHT22;1963;48.804;8.358;2023-01-08T18:17:47;8.90;99.90
3896;DHT22;1963;48.804;8.358;2023-01-08T18:20:15;8.80;99.90
3896;DHT22;1963;48.804;8.358;2023-01-08T18:22:43;8.70;99.90
3896;DHT22;1963;48.804;8.358;2023-01-08T18:25:12;8.60;99.90
3896;DHT22;1963;48.804;8.358;2023-01-08T18:27:41;8.60;99.90
3896;DHT22;1963;48.804;8.358;2023-01-08T18:30:10;8.60;99.90
3896;DHT22;1963;48.804;8.358;2023-01-08T18:32:38;8.60;99.90
3896;DHT22;1963;48.804;8.358;2023-01-08T18:35:07;8.50;99.90
3896;DHT22;1963;48.804;8.358;2023-01-08T18:37:35;8.50;99.90
3896;DHT22;1963;48.804;8.358;2023-01-08T18:40:03;8.50;99.90
3896;DHT22;1963;48.804;8.358;2023-01-08T18:42:31;8.40;99.90
3896;DHT22;1963;48.804;8.358;2023-01-08T18:45:00;8.40;99.90
3896;DHT22;1963;48.804;8.358;2023-01-08T18:47:29;8.40;99.90
3896;DHT22;1963;48.804;8.358;2023-01-08T18:49:57;8.40;99.90
3896;DHT22;1963;48.804;8.358;2023-01-08T18:52:29;8.40;99.90
3896;DHT22;1963;48.804;8.358;2023-01-08T18:54:57;8.30;99.90
3896;DHT22;1963;48.804;8.358;2023-01-08T18:57:25;8.30;99.90
3896;DHT22;1963;48.804;8.358;2023-01-08T18:59:53;8.40;99.90
3896;DHT22;1963;48.804;8.358;2023-01-08T19:02:24;8.30;99.90
3896;DHT22;1963;48.804;8.358;2023-01-08T19:04:53;8.40;99.90
3896;DHT22;1963;48.804;8.358;2023-01-08T19:07:21;8.40;99.90
3896;DHT22;1963;48.804;8.358;2023-01-08T19:09:49;8.40;99.90
3896;DHT22;1963;48.804;8.358;2023-01-08T19:12:17;8.30;99.90
3896;DHT22;1963;48.804;8.358;2023-01-08T19:14:45;8.40;99.90
3896;DHT22;1963;48.804;8.358;2023-01-08T19:17:14;8.40;99.90
3896;DHT22;1963;48.804;8.358;2023-01-08T19:19:44;8.40;99.90
3896;DHT22;1963;48.804;8.358;2023-01-08T19:22:11;8.40;99.90
3896;DHT22;1963;48.804;8.358;2023-01-08T19:24:39;8.40;99.90
3896;DHT22;1963;48.804;8.358;2023-01-08T19:27:07;8.40;99.90
3896;DHT22;1963;48.804;8.358;2023-01-08T19:29:36;8.50;99.90
3896;DHT22;1963;48.804;8.358;2023-01-08T19:32:04;8.50;99.90
3896;DHT22;1963;48.804;8.358;2023-01-08T19:34:33;8.50;99.90
3896;DHT22;1963;48.804;8.358;2023-01-08T19:37:02;8.50;99.90
3896;DHT22;1963;48.804;8.358;2023-01-08T19:39:30;8.60;99.90
3896;DHT22;1963;48.804;8.358;2023-01-08T19:41:58;8.60;99.90
3896;DHT22;1963;48.804;8.358;2023-01-08T19:44:44;8.50;99.90
3896;DHT22;1963;48.804;8.358;2023-01-08T19:47:12;8.60;99.90
3896;DHT22;1963;48.804;8.358;2023-01-08T19:49:41;8.60;99.90
3896;DHT22;1963;48.804;8.358;2023-01-08T19:52:14;8.60;99.90
3896;DHT22;1963;48.804;8.358;2023-01-08T19:54:43;8.60;99.90
3896;DHT22;1963;48.804;8.358;2023-01-08T19:57:11;8.50;99.90
3896;DHT22;1963;48.804;8.358;2023-01-08T19:59:39;8.60;99.90
3896;DHT22;1963;48.804;8.358;2023-01-08T20:02:09;8.60;99.90
3896;DHT22;1963;48.804;8.358;2023-01-08T20:04:37;8.70;99.90
3896;DHT22;1963;48.804;8.358;2023-01-08T20:07:06;8.70;99.90
3896;DHT22;1963;48.804;8.358;2023-01-08T20:09:36;8.70;99.90
3896;DHT22;1963;48.804;8.358;2023-01-08T20:12:04;8.70;99.90
3896;DHT22;1963;48.804;8.358;2023-01-08T20:14:33;8.70;99.90
3896;DHT22;1963;48.804;8.358;2023-01-08T20:17:01;8.80;99.90
3896;DHT22;1963;48.804;8.358;2023-01-08T20:19:29;8.80;99.90
3896;DHT22;1963;48.804;8.358;2023-01-08T20:21:58;8.80;99.90
3896;DHT22;1963;48.804;8.358;2023-01-08T20:24:26;8.90;99.90
3896;DHT22;1963;48.804;8.358;2023-01-08T20:26:56;8.80;99.90
3896;DHT22;1963;48.804;8.358;2023-01-08T20:29:24;8.90;99.90
3896;DHT22;1963;48.804;8.358;2023-01-08T20:31:53;8.80;99.90
3896;DHT22;1963;48.804;8.358;2023-01-08T20:34:23;8.90;99.90
3896;DHT22;1963;48.804;8.358;2023-01-08T20:36:52;8.80;99.90
3896;DHT22;1963;48.804;8.358;2023-01-08T20:39:21;8.80;99.90
3896;DHT22;1963;48.804;8.358;2023-01-08T20:41:50;8.80;99.90
3896;DHT22;1963;48.804;8.358;2023-01-08T20:44:30;8.80;99.90
3896;DHT22;1963;48.804;8.358;2023-01-08T20:46:58;8.80;99.90
3896;DHT22;1963;48.804;8.358;2023-01-08T20:49:27;8.80;99.90
3896;DHT22;1963;48.804;8.358;2023-01-08T20:51:55;8.80;99.90
3896;DHT22;1963;48.804;8.358;2023-01-08T20:54:27;8.90;99.90
3896;DHT22;1963;48.804;8.358;2023-01-08T20:56:56;8.80;99.90
3896;DHT22;1963;48.804;8.358;2023-01-08T20:59:25;8.90;99.90
3896;DHT22;1963;48.804;8.358;2023-01-08T21:01:57;8.90;99.90
3896;DHT22;1963;48.804;8.358;2023-01-08T21:04:25;8.90;99.90
3896;DHT22;1963;48.804;8.358;2023-01-08T21:06:53;8.90;99.90
3896;DHT22;1963;48.804;8.358;2023-01-08T21:09:21;9.00;99.90
3896;DHT22;1963;48.804;8.358;2023-01-08T21:11:49;9.00;99.90
3896;DHT22;1963;48.804;8.358;2023-01-08T21:14:17;9.00;99.90
3896;DHT22;1963;48.804;8.358;2023-01-08T21:16:45;9.00;99.90
3896;DHT22;1963;48.804;8.358;2023-01-08T21:19:14;9.00;99.90
3896;DHT22;1963;48.804;8.358;2023-01-08T21:21:42;9.00;99.90
3896;DHT22;1963;48.804;8.358;2023-01-08T21:24:12;9.00;99.90
3896;DHT22;1963;48.804;8.358;2023-01-08T21:26:40;9.00;99.90
3896;DHT22;1963;48.804;8.358;2023-01-08T21:29:09;9.00;99.90
3896;DHT22;1963;48.804;8.358;2023-01-08T21:31:38;9.00;99.90
3896;DHT22;1963;48.804;8.358;2023-01-08T21:34:06;9.00;99.90
3896;DHT22;1963;48.804;8.358;2023-01-08T21:36:36;9.00;99.90
3896;DHT22;1963;48.804;8.358;2023-01-08T21:39:05;9.00;99.90
3896;DHT22;1963;48.804;8.358;2023-01-08T21:41:33;9.00;99.90
3896;DHT22;1963;48.804;8.358;2023-01-08T21:44:20;9.00;99.90
3896;DHT22;1963;48.804;8.358;2023-01-08T21:47:08;9.00;99.90
3896;DHT22;1963;48.804;8.358;2023-01-08T21:49:37;9.00;99.90
3896;DHT22;1963;48.804;8.358;2023-01-08T21:52:06;8.90;99.90
3896;DHT22;1963;48.804;8.358;2023-01-08T21:54:52;8.90;99.90
3896;DHT22;1963;48.804;8.358;2023-01-08T21:57:20;9.00;99.90
3896;DHT22;1963;48.804;8.358;2023-01-08T21:59:48;9.00;99.90
3896;DHT22;1963;48.804;8.358;2023-01-08T22:02:19;9.00;99.90
3896;DHT22;1963;48.804;8.358;2023-01-08T22:04:47;9.00;99.90
3896;DHT22;1963;48.804;8.358;2023-01-08T22:07:16;9.00;99.90
3896;DHT22;1963;48.804;8.358;2023-01-08T22:09:44;9.00;99.90
3896;DHT22;1963;48.804;8.358;2023-01-08T22:12:14;9.00;99.90
3896;DHT22;1963;48.804;8.358;2023-01-08T22:14:42;9.00;99.90
3896;DHT22;1963;48.804;8.358;2023-01-08T22:17:10;9.00;99.90
3896;DHT22;1963;48.804;8.358;2023-01-08T22:19:38;9.00;99.90
3896;DHT22;1963;48.804;8.358;2023-01-08T22:22:06;9.00;99.90
3896;DHT22;1963;48.804;8.358;2023-01-08T22:24:38;9.00;99.90
3896;DHT22;1963;48.804;8.358;2023-01-08T22:27:07;9.00;99.90
3896;DHT22;1963;48.804;8.358;2023-01-08T22:29:35;9.00;99.90
3896;DHT22;1963;48.804;8.358;2023-01-08T22:32:03;9.00;99.90
3896;DHT22;1963;48.804;8.358;2023-01-08T22:34:33;9.10;99.90
3896;DHT22;1963;48.804;8.358;2023-01-08T22:37:01;9.10;99.90
3896;DHT22;1963;48.804;8.358;2023-01-08T22:39:29;9.10;99.90
3896;DHT22;1963;48.804;8.358;2023-01-08T22:41:59;9.00;99.90
3896;DHT22;1963;48.804;8.358;2023-01-08T22:44:27;9.00;99.90
3896;DHT22;1963;48.804;8.358;2023-01-08T22:46:55;9.00;99.90
3896;DHT22;1963;48.804;8.358;2023-01-08T22:49:24;9.00;99.90
3896;DHT22;1963;48.804;8.358;2023-01-08T22:51:52;9.10;99.90
3896;DHT22;1963;48.804;8.358;2023-01-08T22:54:20;9.00;99.90
3896;DHT22;1963;48.804;8.358;2023-01-08T22:56:48;9.10;99.90
3896;DHT22;1963;48.804;8.358;2023-01-08T22:59:17;9.10;99.90
3896;DHT22;1963;48.804;8.358;2023-01-08T23:01:46;9.20;99.90
3896;DHT22;1963;48.804;8.358;2023-01-08T23:04:14;9.10;99.90
3896;DHT22;1963;48.804;8.358;2023-01-08T23:06:42;9.10;99.90
3896;DHT22;1963;48.804;8.358;2023-01-08T23:09:10;9.10;99.90
3896;DHT22;1963;48.804;8.358;2023-01-08T23:11:38;9.00;99.90
3896;DHT22;1963;48.804;8.358;2023-01-08T23:14:07;9.00;99.90
3896;DHT22;1963;48.804;8.358;2023-01-08T23:16:37;9.10;99.90
3896;DHT22;1963;48.804;8.358;2023-01-08T23:19:05;9.20;99.90
3896;DHT22;1963;48.804;8.358;2023-01-08T23:21:33;9.10;99.90
3896;DHT22;1963;48.804;8.358;2023-01-08T23:24:02;9.20;99.90
3896;DHT22;1963;48.804;8.358;2023-01-08T23:26:29;9.10;99.90
3896;DHT22;1963;48.804;8.358;2023-01-08T23:28:59;9.10;99.90
3896;DHT22;1963;48.804;8.358;2023-01-08T23:31:28;9.00;99.90
3896;DHT22;1963;48.804;8.358;2023-01-08T23:33:57;9.10;99.90
3896;DHT22;1963;48.804;8.358;2023-01-08T23:36:25;9.00;99.90
3896;DHT22;1963;48.804;8.358;2023-01-08T23:38:55;9.00;99.90
3896;DHT22;1963;48.804;8.358;2023-01-08T23:41:25;9.00;99.90
3896;DHT22;1963;48.804;8.358;2023-01-08T23:44:01;9.00;99.90
3896;DHT22;1963;48.804;8.358;2023-01-08T23:46:29;9.00;99.90
3896;DHT22;1963;48.804;8.358;2023-01-08T23:48:58;9.00;99.90
3896;DHT22;1963;48.804;8.358;2023-01-08T23:51:26;9.00;99.90
3896;DHT22;1963;48.804;8.358;2023-01-08T23:53:54;9.00;99.90
3896;DHT22;1963;48.804;8.358;2023-01-08T23:56:22;9.00;99.90
3896;DHT22;1963;48.804;8.358;2023-01-08T23:58:50;9.00;99.90
